Main page
METAR-TAF:

METAR-TAF

Airports :

Friday Harbor Airport

Friday Harbor, Washington, United States

latitude: 48-31-13N, longitude: 123-01-31W, elevation: 108 ft

Current weather observation

The report was made 49 minutes ago, at 22:53 UTC
Wind 12 mph from the Southwest
Temperature 66°F
Humidity 49%
Pressure 30.05 in. Hg
Visibility: 10 miles
Clear sky

METAR: KFHR 132253Z AUTO 23010KT 10SM CLR 19/08 A3005 RMK AO2 SLP175 T01890083 $

Time: 16:42 (23:42 UTC)


TAF: missing

Weather observations and forecasts of more than 4000 airports (METAR and TAF reports).

The available stations are represented by yellow and red dots on the map.

Hover mouse over dot to see the name of the station.

Then click to see weather observations and forecasts.

To change the map : click on the green buttons with a black cross to zoom in, on the green button with a dash to zoom out, or on the green arrows for adjacent maps.


METAR-TAF: